Time;durP1;ratioP1;P1;durP2;ratioP2;P2;SDS_P1;SDS_P2;PMS_P1;PMS_P2;Temp;Humidity;BMP_temperature;BMP_pressure;BME280_temperature;BME280_humidity;BME280_pressure;Samples;Min_cycle;Max_cycle;Signal;HPM_P1;HPM_P2
2023/12/12 00:01:49;;;;;;;8.70;0.50;;;7.00;99.90;;;;;;5022237;28;20077;-75
2023/12/12 00:04:15;;;;;;;4.03;0.50;;;7.00;99.90;;;;;;5022486;28;20528;-75
2023/12/12 00:06:40;;;;;;;5.07;1.13;;;6.90;99.90;;;;;;5023362;28;20037;-75
2023/12/12 00:09:06;;;;;;;2.30;1.17;;;6.90;99.90;;;;;;4994003;28;20507;-74
2023/12/12 00:11:32;;;;;;;0.60;0.60;;;6.90;99.90;;;;;;5017198;28;20133;-75
2023/12/12 00:13:57;;;;;;;2.80;0.98;;;6.80;99.90;;;;;;5023697;28;20037;-75
2023/12/12 00:16:23;;;;;;;5.43;0.45;;;6.80;99.90;;;;;;5022821;28;20048;-74
2023/12/12 00:18:48;;;;;;;2.67;0.85;;;6.70;99.90;;;;;;5024301;28;20084;-75
2023/12/12 00:21:14;;;;;;;1.10;0.88;;;6.70;99.90;;;;;;5022451;28;20041;-75
2023/12/12 00:23:40;;;;;;;0.88;0.38;;;6.70;99.90;;;;;;5022599;28;20053;-74
2023/12/12 00:26:07;;;;;;;3.28;0.45;;;6.70;99.90;;;;;;5023407;28;20037;-76
2023/12/12 00:28:34;;;;;;;3.47;0.65;;;6.70;99.90;;;;;;5023317;28;20534;-74
2023/12/12 00:31:00;;;;;;;0.60;0.35;;;6.60;99.90;;;;;;5022818;28;20492;-75
2023/12/12 00:33:25;;;;;;;0.77;0.75;;;6.60;99.90;;;;;;5023144;28;20041;-76
2023/12/12 00:35:51;;;;;;;1.15;0.70;;;6.60;99.90;;;;;;5021775;28;20045;-76
2023/12/12 00:38:16;;;;;;;0.93;0.22;;;6.60;99.90;;;;;;5023981;28;20129;-74
2023/12/12 00:40:53;;;;;;;1.25;0.80;;;6.60;99.90;;;;;;5023640;28;20042;-76
2023/12/12 00:43:20;;;;;;;1.10;0.80;;;6.60;99.90;;;;;;5022087;28;20128;-75
2023/12/12 00:45:45;;;;;;;4.13;1.02;;;6.50;99.90;;;;;;5022331;28;20095;-74
2023/12/12 00:48:11;;;;;;;0.90;0.52;;;6.50;99.90;;;;;;5020616;28;20050;-75
2023/12/12 00:50:36;;;;;;;0.30;0.30;;;6.40;99.90;;;;;;5023628;28;20033;-75
2023/12/12 00:53:02;;;;;;;1.25;0.52;;;6.50;99.90;;;;;;5022949;28;20061;-74
2023/12/12 00:55:28;;;;;;;1.25;0.52;;;6.40;99.90;;;;;;5004499;28;20382;-75
2023/12/12 00:57:54;;;;;;;1.83;0.60;;;6.40;99.90;;;;;;5021374;28;20124;-75
2023/12/12 01:00:19;;;;;;;4.05;1.20;;;6.40;99.90;;;;;;5021564;28;20280;-75
2023/12/12 01:02:45;;;;;;;11.18;0.90;;;6.30;99.90;;;;;;5010636;28;20046;-75
2023/12/12 01:05:11;;;;;;;2.03;0.75;;;6.30;99.90;;;;;;5001567;28;20054;-75
2023/12/12 01:07:36;;;;;;;2.10;0.50;;;6.30;99.90;;;;;;5002167;28;20054;-75
2023/12/12 01:10:02;;;;;;;3.88;0.57;;;6.20;99.90;;;;;;5003013;28;20416;-75
2023/12/12 01:12:28;;;;;;;0.60;0.40;;;6.20;99.90;;;;;;5001430;28;20389;-75
2023/12/12 01:14:58;;;;;;;1.17;0.52;;;6.10;99.90;;;;;;5002698;28;20326;-75
2023/12/12 01:17:25;;;;;;;0.47;0.47;;;6.10;99.90;;;;;;5002551;28;20046;-75
2023/12/12 01:19:51;;;;;;;0.82;0.82;;;6.10;99.90;;;;;;5018614;28;20049;-75
2023/12/12 01:22:16;;;;;;;0.88;0.82;;;6.00;99.90;;;;;;5022038;28;20056;-76
2023/12/12 01:24:42;;;;;;;0.80;0.45;;;6.00;99.90;;;;;;5022744;28;20041;-75
2023/12/12 01:27:08;;;;;;;1.83;0.30;;;6.00;99.90;;;;;;5022470;28;20635;-75
2023/12/12 01:29:35;;;;;;;0.28;0.20;;;6.00;99.90;;;;;;5020689;28;20049;-76
2023/12/12 01:32:01;;;;;;;1.02;0.28;;;6.00;99.90;;;;;;5020993;28;20055;-74
2023/12/12 01:34:27;;;;;;;1.02;0.73;;;5.90;99.90;;;;;;5022858;28;20116;-75
2023/12/12 01:36:52;;;;;;;1.27;0.77;;;5.90;99.90;;;;;;5020995;28;20048;-75
2023/12/12 01:39:18;;;;;;;0.43;0.43;;;5.90;99.90;;;;;;5021300;28;20049;-74
2023/12/12 01:41:50;;;;;;;0.20;0.20;;;5.90;99.90;;;;;;5021897;28;20065;-75
2023/12/12 01:44:16;;;;;;;1.20;0.65;;;5.80;99.90;;;;;;5022640;28;20041;-75
2023/12/12 01:46:44;;;;;;;2.55;1.02;;;5.80;99.90;;;;;;5019975;28;20037;-75
2023/12/12 01:49:10;;;;;;;0.52;0.52;;;5.70;99.90;;;;;;5021034;28;20548;-75
2023/12/12 01:51:36;;;;;;;2.25;1.48;;;5.70;99.90;;;;;;5020867;28;20045;-75
2023/12/12 01:54:03;;;;;;;1.55;0.20;;;5.60;99.90;;;;;;5021181;28;20081;-75
2023/12/12 01:56:29;;;;;;;0.82;0.68;;;5.60;99.90;;;;;;5002554;28;20050;-75
2023/12/12 01:58:56;;;;;;;1.92;0.38;;;5.60;99.90;;;;;;5001810;28;20046;-75
2023/12/12 02:01:23;;;;;;;0.20;0.20;;;5.50;99.90;;;;;;5000044;28;20520;-75
2023/12/12 02:03:52;;;;;;;1.25;1.15;;;5.50;99.90;;;;;;5002550;28;20132;-74
2023/12/12 02:06:22;;;;;;;3.03;0.80;;;5.40;99.90;;;;;;5002768;28;20115;-75
2023/12/12 02:08:51;;;;;;;1.58;0.40;;;5.30;99.90;;;;;;5069305;22;20074;-75
2023/12/12 02:11:18;;;;;;;5.43;0.30;;;5.30;99.90;;;;;;4999993;28;20074;-76
2023/12/12 02:13:44;;;;;;;0.40;0.38;;;5.20;99.90;;;;;;5002322;28;20046;-76
2023/12/12 02:16:10;;;;;;;0.95;0.65;;;5.10;99.90;;;;;;5001029;28;20054;-75
2023/12/12 02:18:36;;;;;;;1.40;0.32;;;5.00;99.90;;;;;;5001695;28;20092;-75
2023/12/12 02:21:03;;;;;;;0.60;0.47;;;5.00;99.90;;;;;;5001686;28;20042;-75
2023/12/12 02:23:29;;;;;;;1.40;0.77;;;5.00;99.90;;;;;;5000830;28;20053;-75
2023/12/12 02:25:55;;;;;;;0.40;0.40;;;5.00;99.90;;;;;;5000517;28;20056;-75
2023/12/12 02:28:21;;;;;;;0.20;0.20;;;4.90;99.90;;;;;;5001963;28;20069;-76
2023/12/12 02:30:47;;;;;;;1.92;1.20;;;5.00;99.90;;;;;;4999359;28;20072;-75
2023/12/12 02:33:12;;;;;;;0.30;0.30;;;5.00;99.90;;;;;;5002122;28;20045;-75
2023/12/12 02:35:38;;;;;;;0.28;0.28;;;5.00;99.90;;;;;;5000238;28;20050;-76
2023/12/12 02:38:04;;;;;;;1.88;0.60;;;4.90;99.90;;;;;;5001333;28;20069;-75
2023/12/12 02:40:29;;;;;;;1.70;0.52;;;4.90;99.90;;;;;;4984508;28;20085;-75
2023/12/12 02:42:55;;;;;;;3.17;1.30;;;4.90;99.90;;;;;;5000655;28;20065;-76
2023/12/12 02:45:20;;;;;;;0.20;0.20;;;4.90;99.90;;;;;;5000181;28;20038;-75
2023/12/12 02:47:46;;;;;;;0.80;0.80;;;4.90;99.90;;;;;;4999888;28;20538;-75
2023/12/12 02:50:12;;;;;;;0.40;0.40;;;4.90;99.90;;;;;;5001393;28;20646;-75
2023/12/12 02:52:37;;;;;;;2.65;0.65;;;4.90;99.90;;;;;;4999948;28;20432;-76
2023/12/12 02:55:03;;;;;;;1.55;0.80;;;4.90;99.90;;;;;;5000140;28;20436;-76
2023/12/12 02:57:29;;;;;;;4.32;0.98;;;4.90;99.90;;;;;;5002030;28;20057;-75
2023/12/12 02:59:54;;;;;;;1.08;0.85;;;4.90;99.90;;;;;;5001177;28;20041;-75
2023/12/12 03:02:20;;;;;;;0.70;0.35;;;4.90;99.90;;;;;;4999747;28;20500;-77
2023/12/12 03:04:46;;;;;;;2.28;1.10;;;4.80;99.90;;;;;;5002320;28;20045;-75
2023/12/12 03:07:12;;;;;;;1.63;1.25;;;4.80;99.90;;;;;;5004142;28;20049;-75
2023/12/12 03:09:38;;;;;;;2.28;0.88;;;4.80;99.90;;;;;;5008693;28;20053;-76
2023/12/12 03:12:04;;;;;;;0.52;0.50;;;4.80;99.90;;;;;;5003988;28;20071;-75
2023/12/12 03:14:30;;;;;;;1.88;0.90;;;4.80;99.90;;;;;;5004242;28;20113;-75
2023/12/12 03:16:59;;;;;;;0.73;0.60;;;4.80;99.90;;;;;;5002879;28;20117;-75
2023/12/12 03:19:25;;;;;;;1.15;0.35;;;4.70;99.90;;;;;;5003110;28;20050;-76
2023/12/12 03:21:50;;;;;;;0.20;0.20;;;4.70;99.90;;;;;;5004886;28;20034;-76
2023/12/12 03:24:17;;;;;;;0.30;0.30;;;4.70;99.90;;;;;;5003133;28;20129;-75
2023/12/12 03:26:43;;;;;;;6.22;0.50;;;4.60;99.90;;;;;;5004796;28;20086;-75
2023/12/12 03:29:09;;;;;;;0.50;0.50;;;4.50;99.90;;;;;;5004684;28;20050;-76
2023/12/12 03:31:35;;;;;;;0.28;0.28;;;4.50;99.90;;;;;;4986248;28;20046;-76
2023/12/12 03:34:00;;;;;;;2.08;1.60;;;4.50;99.90;;;;;;5003425;28;20050;-76
2023/12/12 03:36:26;;;;;;;0.60;0.55;;;4.40;99.90;;;;;;5004395;28;20116;-76
2023/12/12 03:38:51;;;;;;;1.60;1.27;;;4.40;99.90;;;;;;5004203;28;20049;-75
2023/12/12 03:41:17;;;;;;;0.80;0.80;;;4.40;99.90;;;;;;5004529;28;20534;-75
2023/12/12 03:43:43;;;;;;;3.42;0.68;;;4.40;99.90;;;;;;5002742;28;20064;-76
2023/12/12 03:46:12;;;;;;;1.48;0.50;;;4.40;99.90;;;;;;5003147;28;20042;-75
2023/12/12 03:48:38;;;;;;;1.13;0.75;;;4.40;99.90;;;;;;4988128;28;20046;-75
2023/12/12 03:51:04;;;;;;;0.85;0.77;;;4.40;99.90;;;;;;4987415;28;20566;-75
2023/12/12 03:53:30;;;;;;;0.47;0.30;;;4.40;99.90;;;;;;5002519;28;20057;-76
2023/12/12 03:55:55;;;;;;;2.38;0.55;;;4.40;99.90;;;;;;5002955;28;20054;-75
2023/12/12 03:58:21;;;;;;;0.65;0.47;;;4.40;99.90;;;;;;5002852;28;20133;-75
2023/12/12 04:00:46;;;;;;;0.85;0.85;;;4.30;99.90;;;;;;5003646;28;20084;-76
2023/12/12 04:03:12;;;;;;;1.85;0.40;;;4.30;99.90;;;;;;4994088;28;20042;-76
2023/12/12 04:05:37;;;;;;;2.75;1.25;;;4.20;99.90;;;;;;4968209;28;20118;-75
2023/12/12 04:08:04;;;;;;;0.20;0.20;;;4.20;99.90;;;;;;5002413;28;20045;-75
2023/12/12 04:10:30;;;;;;;0.40;0.40;;;4.20;99.90;;;;;;5021918;28;20061;-76
2023/12/12 04:12:56;;;;;;;1.63;0.45;;;4.10;99.90;;;;;;5023186;28;20476;-76
2023/12/12 04:15:22;;;;;;;2.88;1.27;;;4.10;99.90;;;;;;5022922;28;20114;-75
2023/12/12 04:17:47;;;;;;;2.08;0.70;;;4.10;99.90;;;;;;5022272;28;20045;-76
2023/12/12 04:20:13;;;;;;;0.45;0.40;;;4.10;99.90;;;;;;5010855;28;20050;-75
2023/12/12 04:22:39;;;;;;;1.40;1.30;;;4.10;99.90;;;;;;5002731;28;20050;-75
2023/12/12 04:25:05;;;;;;;1.70;1.58;;;4.10;99.90;;;;;;5003675;28;20050;-75
2023/12/12 04:27:31;;;;;;;0.65;0.57;;;4.10;99.90;;;;;;5002172;28;20053;-75
2023/12/12 04:29:57;;;;;;;1.27;0.65;;;4.10;99.90;;;;;;5002564;28;20560;-75
2023/12/12 04:32:23;;;;;;;0.95;0.85;;;4.20;99.90;;;;;;4985749;28;20128;-76
2023/12/12 04:34:48;;;;;;;0.77;0.77;;;4.20;99.90;;;;;;5003927;28;20485;-76
2023/12/12 04:37:14;;;;;;;2.38;0.80;;;4.20;99.90;;;;;;5002094;28;20140;-75
2023/12/12 04:39:40;;;;;;;0.80;0.80;;;4.30;99.90;;;;;;5004178;28;20526;-75
2023/12/12 04:42:06;;;;;;;1.73;1.23;;;4.30;99.90;;;;;;5001985;28;20050;-75
2023/12/12 04:44:31;;;;;;;4.40;1.35;;;4.30;99.90;;;;;;5002133;28;20129;-75
2023/12/12 04:46:57;;;;;;;1.48;1.23;;;4.30;99.90;;;;;;5002520;28;20594;-75
2023/12/12 04:49:22;;;;;;;1.50;1.10;;;4.30;99.90;;;;;;5003691;28;20586;-76
2023/12/12 04:51:48;;;;;;;5.57;1.73;;;4.30;99.90;;;;;;5003634;28;20478;-75
2023/12/12 04:54:14;;;;;;;1.17;0.93;;;4.30;99.90;;;;;;5001499;28;20543;-75
2023/12/12 04:56:39;;;;;;;0.95;0.90;;;4.30;99.90;;;;;;5002832;28;20050;-76
2023/12/12 04:59:05;;;;;;;2.58;1.10;;;4.30;99.90;;;;;;5002773;28;20065;-75
2023/12/12 05:01:31;;;;;;;1.80;0.90;;;4.30;99.90;;;;;;4984729;28;20049;-75
2023/12/12 05:03:56;;;;;;;1.58;0.75;;;4.30;99.90;;;;;;5003021;28;20535;-75
2023/12/12 05:06:22;;;;;;;1.98;0.77;;;4.30;99.90;;;;;;5002909;28;20072;-76
2023/12/12 05:08:48;;;;;;;1.35;1.23;;;4.20;99.90;;;;;;5012473;28;20115;-75
2023/12/12 05:11:13;;;;;;;1.27;0.90;;;4.20;99.90;;;;;;5022697;28;20048;-75
2023/12/12 05:13:40;;;;;;;1.98;1.88;;;4.20;99.90;;;;;;5023548;28;20345;-76
2023/12/12 05:16:09;;;;;;;2.72;1.00;;;4.10;99.90;;;;;;5017200;28;20099;-76
2023/12/12 05:18:35;;;;;;;1.02;1.02;;;4.10;99.90;;;;;;5002464;28;20046;-75
2023/12/12 05:21:00;;;;;;;1.08;1.02;;;4.10;99.90;;;;;;5003320;28;20396;-74
2023/12/12 05:23:26;;;;;;;3.00;1.83;;;4.00;99.90;;;;;;5003132;28;20053;-76
2023/12/12 05:25:52;;;;;;;0.70;0.70;;;4.00;99.90;;;;;;5000922;28;20046;-75
2023/12/12 05:28:17;;;;;;;1.55;1.17;;;4.00;99.90;;;;;;5001908;28;20050;-75
2023/12/12 05:30:44;;;;;;;1.58;1.00;;;4.00;99.90;;;;;;5001627;28;20100;-76
2023/12/12 05:33:10;;;;;;;1.55;1.45;;;4.00;99.90;;;;;;5002493;28;20060;-75
2023/12/12 05:35:35;;;;;;;0.57;0.57;;;3.90;99.90;;;;;;5001004;28;20053;-76
2023/12/12 05:38:03;;;;;;;0.85;0.85;;;3.90;99.90;;;;;;5002599;28;20046;-75
2023/12/12 05:40:29;;;;;;;1.85;1.30;;;3.90;99.90;;;;;;5001599;28;20060;-76
2023/12/12 05:42:55;;;;;;;3.92;0.80;;;3.90;99.90;;;;;;5001985;28;20051;-75
2023/12/12 05:45:20;;;;;;;3.55;2.45;;;3.90;99.90;;;;;;5000032;28;20125;-76
2023/12/12 05:47:46;;;;;;;1.27;1.20;;;4.00;99.90;;;;;;4996736;28;20097;-77
2023/12/12 05:50:11;;;;;;;1.02;0.90;;;4.00;99.90;;;;;;4991005;28;20077;-74
2023/12/12 05:52:38;;;;;;;1.42;1.15;;;4.00;99.90;;;;;;5002854;28;20542;-73
2023/12/12 05:55:05;;;;;;;1.15;1.15;;;4.00;99.90;;;;;;5002018;28;20062;-74
2023/12/12 05:57:34;;;;;;;2.53;1.85;;;4.00;99.90;;;;;;5000845;28;20519;-75
2023/12/12 06:00:01;;;;;;;2.05;1.30;;;4.00;99.90;;;;;;4993743;28;20042;-74
2023/12/12 06:02:26;;;;;;;1.75;1.65;;;4.00;99.90;;;;;;5000736;28;20543;-74
2023/12/12 06:04:52;;;;;;;2.38;2.20;;;4.00;99.90;;;;;;5002259;28;20046;-73
2023/12/12 06:07:18;;;;;;;2.35;0.80;;;4.00;99.90;;;;;;4995705;28;20100;-75
2023/12/12 06:09:44;;;;;;;1.25;1.25;;;4.00;99.90;;;;;;5009242;28;20054;-75
2023/12/12 06:12:09;;;;;;;2.25;1.92;;;4.10;99.90;;;;;;4998092;28;20456;-74
2023/12/12 06:14:35;;;;;;;1.23;0.75;;;4.10;99.90;;;;;;4997796;28;20111;-75
2023/12/12 06:17:02;;;;;;;1.40;1.30;;;4.10;99.90;;;;;;4989794;28;20129;-75
2023/12/12 06:19:28;;;;;;;2.20;1.90;;;4.10;99.90;;;;;;4996606;28;20066;-74
2023/12/12 06:21:54;;;;;;;1.02;0.95;;;4.10;99.90;;;;;;4994568;28;20041;-74
2023/12/12 06:24:20;;;;;;;1.40;1.30;;;4.10;99.90;;;;;;4992850;28;20097;-74
2023/12/12 06:26:46;;;;;;;1.75;1.65;;;4.10;99.90;;;;;;4997116;28;20077;-74
2023/12/12 06:29:13;;;;;;;1.85;1.48;;;4.20;99.90;;;;;;4998054;28;20431;-74
2023/12/12 06:31:39;;;;;;;6.60;2.42;;;4.20;99.90;;;;;;5000265;28;20132;-74
2023/12/12 06:34:07;;;;;;;2.08;1.95;;;4.20;99.90;;;;;;5004893;28;20484;-76
2023/12/12 06:36:32;;;;;;;1.85;1.60;;;4.20;99.90;;;;;;4986568;28;20108;-75
2023/12/12 06:38:58;;;;;;;2.50;1.63;;;4.20;99.90;;;;;;4993687;28;20041;-76
2023/12/12 06:41:24;;;;;;;2.15;1.95;;;4.20;99.90;;;;;;4996416;28;20121;-75
2023/12/12 06:43:49;;;;;;;1.40;1.30;;;4.30;99.90;;;;;;5001230;28;20041;-77
2023/12/12 06:46:18;;;;;;;6.78;2.85;;;4.30;99.90;;;;;;5001115;28;20124;-74
2023/12/12 06:48:43;;;;;;;2.03;1.92;;;4.30;99.90;;;;;;4998428;28;20135;-74
2023/12/12 06:51:09;;;;;;;4.78;3.08;;;4.30;99.90;;;;;;4998672;28;20053;-75
2023/12/12 06:53:35;;;;;;;2.70;2.13;;;4.40;99.90;;;;;;4998991;28;20033;-75
2023/12/12 06:56:02;;;;;;;4.22;2.33;;;4.30;99.90;;;;;;4998927;28;20527;-74
2023/12/12 06:58:28;;;;;;;2.08;1.88;;;4.40;99.90;;;;;;4998669;28;20046;-75
2023/12/12 07:00:54;;;;;;;2.75;1.70;;;4.40;99.90;;;;;;4997366;28;20088;-75
2023/12/12 07:03:21;;;;;;;3.00;2.08;;;4.40;99.90;;;;;;5000389;28;20626;-75
2023/12/12 07:05:50;;;;;;;2.60;2.10;;;4.40;99.90;;;;;;4999960;28;20045;-74
2023/12/12 07:08:19;;;;;;;2.05;1.70;;;4.40;99.90;;;;;;4999802;28;20077;-74
2023/12/12 07:10:46;;;;;;;3.95;3.38;;;4.40;99.90;;;;;;4998855;28;20121;-75
2023/12/12 07:13:12;;;;;;;4.95;2.78;;;4.50;99.90;;;;;;5000528;28;20054;-74
2023/12/12 07:15:38;;;;;;;3.63;1.83;;;4.50;99.90;;;;;;4997796;28;20042;-76
2023/12/12 07:18:08;;;;;;;1.98;1.88;;;4.50;99.90;;;;;;4998327;28;20443;-74
2023/12/12 07:20:33;;;;;;;2.65;2.45;;;4.50;99.90;;;;;;4999327;28;20042;-75
2023/12/12 07:22:59;;;;;;;3.50;3.17;;;4.50;99.90;;;;;;4999372;28;20112;-76
2023/12/12 07:25:24;;;;;;;4.00;3.00;;;4.60;99.90;;;;;;5000406;28;20393;-75
2023/12/12 07:27:50;;;;;;;3.50;1.98;;;4.60;99.90;;;;;;4998490;28;20038;-75
2023/12/12 07:30:16;;;;;;;4.20;3.10;;;4.60;99.90;;;;;;4998462;28;20164;-75
2023/12/12 07:32:42;;;;;;;5.20;4.55;;;4.70;99.90;;;;;;4982525;28;20038;-75
2023/12/12 07:35:08;;;;;;;6.90;3.67;;;4.70;99.90;;;;;;4999028;28;20073;-74
2023/12/12 07:37:34;;;;;;;5.25;4.07;;;4.80;99.90;;;;;;4996895;28;20092;-75
2023/12/12 07:39:59;;;;;;;8.07;3.03;;;4.80;99.90;;;;;;4998296;28;20050;-74
2023/12/12 07:42:25;;;;;;;7.85;5.22;;;4.90;99.90;;;;;;4998413;28;20044;-75
2023/12/12 07:44:51;;;;;;;4.90;3.92;;;4.80;99.90;;;;;;4997412;28;20172;-75
2023/12/12 07:47:17;;;;;;;7.38;4.50;;;4.90;99.90;;;;;;4988506;28;20058;-75
2023/12/12 07:49:42;;;;;;;6.57;4.38;;;4.90;99.90;;;;;;5005263;28;20539;-74
2023/12/12 07:52:08;;;;;;;7.00;6.00;;;5.00;99.90;;;;;;5017697;28;20075;-75
2023/12/12 07:54:33;;;;;;;11.82;4.43;;;5.00;99.90;;;;;;5002518;28;20046;-75
2023/12/12 07:56:59;;;;;;;9.27;6.85;;;5.00;99.90;;;;;;5001361;28;20552;-75
2023/12/12 07:59:25;;;;;;;6.38;4.90;;;5.00;99.90;;;;;;5002268;28;20054;-75
2023/12/12 08:01:50;;;;;;;6.32;5.53;;;5.00;99.90;;;;;;5001482;28;20045;-75
2023/12/12 08:04:16;;;;;;;10.88;6.55;;;5.00;99.90;;;;;;5002389;28;20088;-74
2023/12/12 08:06:41;;;;;;;11.68;4.85;;;5.10;99.90;;;;;;5001521;28;20037;-74
2023/12/12 08:09:07;;;;;;;9.88;6.13;;;5.10;99.90;;;;;;5001009;28;20049;-76
2023/12/12 08:11:32;;;;;;;18.50;5.43;;;5.10;99.90;;;;;;5003830;28;20070;-75
2023/12/12 08:13:59;;;;;;;7.60;5.85;;;5.20;99.90;;;;;;5018823;28;20046;-75
2023/12/12 08:16:25;;;;;;;14.60;7.63;;;5.20;99.90;;;;;;5011267;28;20096;-75
2023/12/12 08:18:51;;;;;;;14.70;5.68;;;5.20;99.90;;;;;;5004224;28;20048;-75
2023/12/12 08:21:17;;;;;;;21.60;7.15;;;5.20;99.90;;;;;;5001755;28;20254;-74
2023/12/12 08:23:43;;;;;;;20.88;5.72;;;5.30;99.90;;;;;;5006222;28;20128;-74
2023/12/12 08:26:10;;;;;;;15.90;6.90;;;5.30;99.90;;;;;;5004183;28;20398;-75
2023/12/12 08:28:36;;;;;;;14.90;6.68;;;5.30;99.90;;;;;;5022176;28;20041;-75
2023/12/12 08:31:01;;;;;;;36.13;7.45;;;5.30;99.90;;;;;;5019507;28;20045;-74
2023/12/12 08:33:27;;;;;;;12.50;6.60;;;5.30;99.90;;;;;;5013142;28;20038;-76
2023/12/12 08:35:52;;;;;;;17.73;6.20;;;5.40;99.90;;;;;;4999062;28;20072;-75
2023/12/12 08:38:18;;;;;;;9.95;5.32;;;5.40;99.90;;;;;;5002191;28;20130;-75
2023/12/12 08:40:44;;;;;;;11.23;5.40;;;5.40;99.90;;;;;;4997238;28;20048;-75
2023/12/12 08:43:09;;;;;;;14.20;6.30;;;5.40;99.90;;;;;;5019247;28;20050;-76
2023/12/12 08:45:35;;;;;;;12.35;6.50;;;5.40;99.90;;;;;;5017777;28;20041;-75
2023/12/12 08:48:01;;;;;;;11.07;4.90;;;5.40;99.90;;;;;;5013227;28;20046;-75
2023/12/12 08:50:26;;;;;;;8.90;5.15;;;5.40;99.90;;;;;;5000259;28;20523;-75
2023/12/12 08:52:52;;;;;;;47.65;5.93;;;5.40;99.90;;;;;;5001860;28;20037;-74
2023/12/12 08:55:18;;;;;;;11.02;3.70;;;5.40;99.90;;;;;;5002592;28;20367;-74
2023/12/12 08:57:45;;;;;;;13.02;4.78;;;5.40;99.90;;;;;;5002804;28;20034;-74
2023/12/12 09:00:12;;;;;;;8.65;3.67;;;5.40;99.90;;;;;;4999592;28;20046;-76
2023/12/12 09:02:38;;;;;;;15.00;5.75;;;5.40;99.90;;;;;;5012343;28;20191;-75
2023/12/12 09:05:06;;;;;;;12.70;4.85;;;5.40;99.90;;;;;;5020957;28;20052;-75
2023/12/12 09:07:33;;;;;;;9.98;7.10;;;5.40;99.90;;;;;;5021549;28;20053;-76
2023/12/12 09:09:59;;;;;;;7.55;4.40;;;5.40;99.90;;;;;;4999063;28;20116;-76
2023/12/12 09:12:25;;;;;;;23.00;6.00;;;5.40;99.90;;;;;;5001813;28;20092;-76
2023/12/12 09:14:50;;;;;;;10.20;4.80;;;5.40;99.90;;;;;;4998775;28;20093;-75
2023/12/12 09:17:16;;;;;;;9.00;4.75;;;5.40;99.90;;;;;;4983998;28;20041;-76
2023/12/12 09:19:41;;;;;;;14.18;6.95;;;5.40;99.90;;;;;;5000386;28;20042;-75
2023/12/12 09:22:07;;;;;;;12.52;5.28;;;5.40;99.90;;;;;;5001150;28;20262;-76
2023/12/12 09:24:33;;;;;;;9.63;5.22;;;5.40;99.90;;;;;;5001489;28;20589;-76
2023/12/12 09:26:59;;;;;;;7.15;5.05;;;5.40;99.90;;;;;;5000602;28;20038;-75
2023/12/12 09:29:24;;;;;;;11.80;6.20;;;5.40;99.90;;;;;;4999497;28;20052;-75
2023/12/12 09:31:50;;;;;;;13.55;4.70;;;5.40;99.90;;;;;;5000325;28;20042;-75
2023/12/12 09:34:16;;;;;;;8.27;6.13;;;5.40;99.90;;;;;;5001379;28;20053;-76
2023/12/12 09:36:41;;;;;;;8.30;6.25;;;5.40;99.90;;;;;;4999741;28;20046;-74
2023/12/12 09:39:07;;;;;;;8.15;6.40;;;5.40;99.90;;;;;;4999424;28;20045;-75
2023/12/12 09:41:33;;;;;;;14.15;6.45;;;5.40;99.90;;;;;;4982914;28;20397;-76
2023/12/12 09:44:01;;;;;;;12.40;7.50;;;5.50;99.90;;;;;;5000716;28;20075;-76
2023/12/12 09:46:28;;;;;;;7.75;6.18;;;5.50;99.90;;;;;;4998421;28;20385;-75
2023/12/12 09:48:55;;;;;;;9.57;7.28;;;5.50;99.90;;;;;;4999468;28;20049;-76
2023/12/12 09:51:21;;;;;;;12.05;7.30;;;5.50;99.90;;;;;;4999780;28;20073;-76
2023/12/12 09:53:47;;;;;;;19.63;7.10;;;5.50;99.90;;;;;;5000293;28;20148;-75
2023/12/12 09:56:17;;;;;;;18.63;7.60;;;5.50;99.90;;;;;;5000725;28;20033;-75
2023/12/12 09:58:48;;;;;;;16.48;8.63;;;5.60;99.90;;;;;;5000964;28;20065;-75
2023/12/12 10:01:15;;;;;;;20.67;9.20;;;5.60;99.90;;;;;;4999287;28;20077;-74
2023/12/12 10:03:41;;;;;;;31.85;8.75;;;5.60;99.90;;;;;;4999635;28;20061;-76
2023/12/12 10:06:09;;;;;;;13.23;8.07;;;5.60;99.90;;;;;;4998717;28;20045;-75
2023/12/12 10:08:38;;;;;;;18.50;7.97;;;5.60;99.90;;;;;;4999857;28;20551;-74
2023/12/12 10:11:09;;;;;;;16.42;7.20;;;5.60;99.90;;;;;;5000193;28;20128;-75
2023/12/12 10:13:48;;;;;;;16.05;7.88;;;5.60;99.90;;;;;;5000703;28;20167;-75
2023/12/12 10:16:14;;;;;;;14.55;8.07;;;5.70;99.90;;;;;;4997517;28;20527;-76
2023/12/12 10:18:40;;;;;;;18.92;8.60;;;5.70;99.90;;;;;;4999087;28;20311;-75
2023/12/12 10:21:26;;;;;;;18.13;7.90;;;5.70;99.90;;;;;;4998310;28;20050;-76
2023/12/12 10:23:53;;;;;;;15.45;10.80;;;5.70;99.90;;;;;;4998798;28;20046;-76
2023/12/12 10:26:29;;;;;;;12.43;9.10;;;5.70;99.90;;;;;;5000103;28;20037;-75
2023/12/12 10:28:56;;;;;;;9.25;7.35;;;5.70;99.90;;;;;;4998384;28;20400;-75
2023/12/12 10:31:25;;;;;;;8.68;7.78;;;5.70;99.90;;;;;;4999339;28;20045;-74
2023/12/12 10:33:51;;;;;;;15.10;9.55;;;5.70;99.90;;;;;;4982291;28;20531;-75
2023/12/12 10:36:16;;;;;;;13.75;10.63;;;5.70;99.90;;;;;;5000691;28;20401;-74
2023/12/12 10:38:42;;;;;;;14.55;10.18;;;5.80;99.90;;;;;;4998350;28;20055;-75
2023/12/12 10:41:12;;;;;;;11.10;9.95;;;5.80;99.90;;;;;;4998268;28;20042;-75
2023/12/12 10:43:40;;;;;;;11.55;10.32;;;5.80;99.90;;;;;;4999050;28;20286;-75
2023/12/12 10:46:10;;;;;;;13.25;10.50;;;5.80;99.90;;;;;;4997590;28;20484;-76
2023/12/12 10:48:44;;;;;;;14.15;9.27;;;5.90;99.90;;;;;;4998532;28;20049;-76
2023/12/12 10:51:11;;;;;;;15.10;9.55;;;5.90;99.90;;;;;;5000203;28;20065;-76
2023/12/12 10:53:37;;;;;;;14.35;8.00;;;5.90;99.90;;;;;;4998101;28;20042;-76
2023/12/12 10:56:04;;;;;;;14.52;8.63;;;6.00;99.90;;;;;;4998316;28;20180;-75
2023/12/12 10:58:31;;;;;;;15.35;8.75;;;6.00;99.90;;;;;;4998697;28;20085;-76
2023/12/12 11:00:58;;;;;;;13.10;7.95;;;6.00;99.90;;;;;;4998870;28;20176;-76
2023/12/12 11:03:24;;;;;;;9.10;7.82;;;6.00;99.90;;;;;;4997975;28;20034;-76
2023/12/12 11:05:50;;;;;;;14.57;9.25;;;6.10;99.90;;;;;;4999769;28;20475;-75
2023/12/12 11:08:18;;;;;;;12.77;9.05;;;6.10;99.90;;;;;;4998957;28;20053;-75
2023/12/12 11:10:46;;;;;;;12.27;9.40;;;6.10;99.90;;;;;;4999229;28;20045;-76
2023/12/12 11:13:15;;;;;;;12.55;7.85;;;6.20;99.90;;;;;;4997623;28;20056;-76
2023/12/12 11:15:41;;;;;;;10.77;8.55;;;6.20;99.90;;;;;;4997698;28;20042;-74
2023/12/12 11:18:09;;;;;;;13.32;7.68;;;6.20;99.90;;;;;;4999231;28;20050;-75
2023/12/12 11:20:40;;;;;;;11.60;7.60;;;6.20;99.90;;;;;;4982485;28;20046;-76
2023/12/12 11:23:07;;;;;;;13.73;7.47;;;6.30;99.90;;;;;;4998667;28;20425;-76
2023/12/12 11:25:34;;;;;;;10.35;8.50;;;6.30;99.90;;;;;;4998819;28;20042;-76
2023/12/12 11:28:02;;;;;;;10.15;7.30;;;6.30;99.90;;;;;;5002811;28;20148;-74
2023/12/12 11:30:38;;;;;;;11.45;6.88;;;6.30;99.90;;;;;;5002689;28;20041;-75
2023/12/12 11:33:06;;;;;;;14.55;7.47;;;6.40;99.90;;;;;;5001625;28;20068;-74
2023/12/12 11:35:32;;;;;;;10.25;6.18;;;6.40;99.90;;;;;;5003822;28;20046;-76
2023/12/12 11:38:04;;;;;;;11.00;7.38;;;6.40;99.90;;;;;;5001659;28;20115;-76
2023/12/12 11:40:33;;;;;;;11.75;6.88;;;6.40;99.90;;;;;;5002271;28;20057;-75
2023/12/12 11:43:28;;;;;;;15.00;8.57;;;6.40;99.90;;;;;;5001375;28;20484;-76
2023/12/12 11:45:54;;;;;;;12.13;8.60;;;6.40;99.90;;;;;;4998769;28;20088;-76
2023/12/12 11:48:20;;;;;;;17.20;7.93;;;6.40;99.90;;;;;;5001384;28;20457;-76
2023/12/12 11:50:46;;;;;;;12.40;9.00;;;6.40;99.90;;;;;;4985625;28;20334;-76
2023/12/12 11:53:11;;;;;;;17.52;10.75;;;6.50;99.90;;;;;;5002787;28;20041;-76
2023/12/12 11:55:42;;;;;;;17.63;10.45;;;6.50;99.90;;;;;;5001598;28;20084;-74
2023/12/12 11:58:08;;;;;;;12.30;8.50;;;6.50;99.90;;;;;;5000270;28;20049;-75
2023/12/12 12:00:37;;;;;;;8.68;6.97;;;6.50;99.90;;;;;;5001022;28;20045;-76
2023/12/12 12:03:04;;;;;;;12.18;8.60;;;6.50;99.90;;;;;;5001889;28;20053;-75
2023/12/12 12:05:31;;;;;;;22.58;9.80;;;6.60;99.90;;;;;;5002737;28;20080;-76
2023/12/12 12:07:57;;;;;;;15.98;8.48;;;6.60;99.90;;;;;;5011431;28;20519;-76
2023/12/12 12:10:24;;;;;;;15.68;8.85;;;6.60;99.90;;;;;;5013786;28;20041;-77
2023/12/12 12:12:57;;;;;;;18.88;8.60;;;6.70;99.90;;;;;;4998945;28;20381;-75
2023/12/12 12:15:23;;;;;;;17.05;7.35;;;6.70;99.90;;;;;;5008761;28;20038;-76
2023/12/12 12:17:49;;;;;;;12.88;7.97;;;6.70;99.90;;;;;;5001622;28;20516;-75
2023/12/12 12:20:15;;;;;;;16.10;9.30;;;6.70;99.90;;;;;;5003357;28;20046;-77
2023/12/12 12:22:42;;;;;;;13.35;8.20;;;6.70;99.90;;;;;;5002241;28;20582;-76
2023/12/12 12:25:08;;;;;;;14.75;8.85;;;6.70;99.90;;;;;;5001513;28;20282;-76
2023/12/12 12:27:52;;;;;;;17.08;9.30;;;6.70;99.90;;;;;;4983295;28;20042;-75
2023/12/12 12:30:18;;;;;;;12.50;7.13;;;6.70;99.90;;;;;;5000119;28;20072;-75
2023/12/12 12:33:00;;;;;;;17.08;9.13;;;6.70;99.90;;;;;;5002314;28;20069;-74
2023/12/12 12:35:26;;;;;;;14.88;9.70;;;6.70;99.90;;;;;;5000441;28;20116;-76
2023/12/12 12:37:53;;;;;;;14.18;8.07;;;6.80;99.90;;;;;;5000842;28;20484;-75
2023/12/12 12:40:38;;;;;;;15.77;7.13;;;6.70;99.90;;;;;;5002393;28;20046;-74
2023/12/12 12:43:24;;;;;;;11.93;6.72;;;6.80;99.90;;;;;;4997605;28;20128;-75
2023/12/12 12:45:51;;;;;;;11.10;7.00;;;6.80;99.90;;;;;;4998451;28;20042;-75
2023/12/12 12:48:17;;;;;;;9.85;6.80;;;6.80;99.90;;;;;;4990988;28;20102;-78
2023/12/12 12:50:44;;;;;;;12.98;6.45;;;6.70;99.90;;;;;;5005782;28;20580;-76